Time;durP1;ratioP1;P1;durP2;ratioP2;P2;SDS_P1;SDS_P2;PMS_P1;PMS_P2;Temp;Humidity;BMP_temperature;BMP_pressure;BME280_temperature;BME280_humidity;BME280_pressure;Samples;Min_cycle;Max_cycle;Signal;HPM_P1;HPM_P2
2022/06/07 00:01:47;;;;;;;2.28;2.00;;;15.50;57.80;;;;;;4971588;28;20205;-57
2022/06/07 00:04:18;;;;;;;2.13;1.63;;;15.50;57.80;;;;;;4972384;28;20226;-58
2022/06/07 00:06:48;;;;;;;2.83;1.92;;;15.50;57.80;;;;;;4972348;28;20681;-58
2022/06/07 00:09:19;;;;;;;2.15;1.60;;;15.50;57.90;;;;;;4974396;28;20645;-58
2022/06/07 00:11:52;;;;;;;4.55;1.55;;;15.50;58.00;;;;;;4991289;28;20757;-56
2022/06/07 00:14:24;;;;;;;1.75;1.60;;;15.50;58.20;;;;;;4992055;28;20201;-55
2022/06/07 00:16:55;;;;;;;1.60;1.50;;;15.60;58.20;;;;;;4979123;28;20226;-56
2022/06/07 00:19:26;;;;;;;2.33;1.35;;;15.60;58.10;;;;;;4970815;28;20202;-57
2022/06/07 00:21:57;;;;;;;1.70;1.40;;;15.70;58.20;;;;;;4971013;28;20678;-57
2022/06/07 00:24:28;;;;;;;1.52;1.35;;;15.70;58.20;;;;;;4970991;28;20226;-58
2022/06/07 00:27:01;;;;;;;1.52;1.17;;;15.70;58.20;;;;;;4970220;28;20714;-55
2022/06/07 00:29:32;;;;;;;2.60;1.38;;;15.80;58.20;;;;;;4971322;28;20568;-57
2022/06/07 00:32:04;;;;;;;1.10;1.00;;;15.80;58.20;;;;;;4970149;28;20241;-57
2022/06/07 00:34:35;;;;;;;2.38;1.25;;;15.80;58.10;;;;;;4971456;28;20198;-56
2022/06/07 00:37:06;;;;;;;1.50;1.38;;;15.80;58.10;;;;;;4971119;28;20225;-56
2022/06/07 00:39:36;;;;;;;1.27;1.10;;;15.90;58.10;;;;;;4971933;28;20205;-58
2022/06/07 00:42:10;;;;;;;1.33;1.20;;;15.90;58.00;;;;;;4972327;28;20209;-56
2022/06/07 00:44:41;;;;;;;1.30;1.05;;;16.00;58.10;;;;;;4971580;28;20226;-55
2022/06/07 00:47:14;;;;;;;1.23;1.08;;;16.00;57.90;;;;;;4970894;28;20219;-57
2022/06/07 00:49:48;;;;;;;1.20;0.95;;;16.00;57.60;;;;;;4971740;28;20213;-55
2022/06/07 00:52:20;;;;;;;0.80;0.80;;;16.10;57.40;;;;;;4986728;28;20212;-57
2022/06/07 00:54:51;;;;;;;2.15;0.90;;;16.10;57.10;;;;;;4990261;28;20248;-57
2022/06/07 00:57:24;;;;;;;0.80;0.80;;;16.10;56.90;;;;;;4990580;28;20225;-56
2022/06/07 00:59:54;;;;;;;0.75;0.70;;;16.20;56.70;;;;;;4992185;28;20205;-57
2022/06/07 01:02:25;;;;;;;1.02;0.70;;;16.20;56.60;;;;;;4993308;28;20204;-56
2022/06/07 01:04:56;;;;;;;0.88;0.82;;;16.20;56.40;;;;;;4974772;28;20230;-56
2022/06/07 01:13:02;;;;;;;1.05;0.90;;;16.30;56.10;;;;;;4994297;28;20335;-58
2022/06/07 01:15:33;;;;;;;0.60;0.60;;;16.40;55.80;;;;;;4994266;28;20209;-56
2022/06/07 01:18:04;;;;;;;1.10;0.82;;;16.40;55.70;;;;;;4993885;28;20225;-56
2022/06/07 01:20:34;;;;;;;0.60;0.60;;;16.40;55.30;;;;;;4994112;28;20197;-57
2022/06/07 01:23:07;;;;;;;0.55;0.55;;;16.40;55.20;;;;;;4994163;28;20236;-57
2022/06/07 01:25:38;;;;;;;0.60;0.60;;;16.50;55.00;;;;;;4994024;28;20204;-57
2022/06/07 01:28:09;;;;;;;0.88;0.60;;;16.50;54.80;;;;;;4994260;28;20221;-57
2022/06/07 01:30:40;;;;;;;0.70;0.70;;;16.50;54.60;;;;;;4993866;28;20202;-58
2022/06/07 01:33:10;;;;;;;0.90;0.63;;;16.60;54.40;;;;;;4993986;28;20205;-57
2022/06/07 01:35:41;;;;;;;0.57;0.43;;;16.60;54.30;;;;;;4993544;28;20208;-57
2022/06/07 01:38:14;;;;;;;0.50;0.50;;;16.60;54.10;;;;;;4993217;28;20224;-58
2022/06/07 01:43:53;;;;;;;0.82;0.60;;;16.70;54.40;;;;;;4933293;29;20259;-60
2022/06/07 01:46:24;;;;;;;1.00;0.65;;;16.70;54.60;;;;;;4932660;29;20691;-58
2022/06/07 01:48:55;;;;;;;0.55;0.55;;;16.70;54.70;;;;;;4952545;28;20202;-58
2022/06/07 01:51:25;;;;;;;1.35;0.60;;;16.70;54.80;;;;;;4981752;28;20201;-58
2022/06/07 01:53:58;;;;;;;0.68;0.60;;;16.80;55.00;;;;;;4993703;28;20725;-58
2022/06/07 01:56:29;;;;;;;0.55;0.52;;;16.80;55.10;;;;;;4993398;28;20205;-59
2022/06/07 01:58:59;;;;;;;0.80;0.50;;;16.80;55.10;;;;;;4993870;28;20205;-59
2022/06/07 02:01:30;;;;;;;0.77;0.60;;;16.80;55.50;;;;;;4992792;28;20570;-58
2022/06/07 02:04:01;;;;;;;1.02;0.50;;;16.80;55.30;;;;;;4993012;28;20694;-58
2022/06/07 02:06:31;;;;;;;1.27;0.73;;;16.80;55.30;;;;;;4994053;28;20197;-58
2022/06/07 02:09:04;;;;;;;0.80;0.50;;;16.80;55.30;;;;;;4992906;28;20201;-58
2022/06/07 02:11:35;;;;;;;0.85;0.52;;;16.90;55.40;;;;;;4993077;28;20193;-58
2022/06/07 02:14:06;;;;;;;0.68;0.60;;;16.90;55.50;;;;;;4993166;28;20194;-59
2022/06/07 02:16:37;;;;;;;0.55;0.55;;;16.90;55.60;;;;;;4983004;28;20222;-58
2022/06/07 02:19:08;;;;;;;0.55;0.50;;;16.90;55.60;;;;;;4973679;28;20205;-58
2022/06/07 02:21:41;;;;;;;0.95;0.50;;;16.90;55.70;;;;;;4973900;28;20203;-58
2022/06/07 02:24:14;;;;;;;0.52;0.52;;;16.90;55.70;;;;;;4973174;28;20633;-58
2022/06/07 02:26:48;;;;;;;0.52;0.50;;;16.90;55.80;;;;;;4973954;28;20229;-58
2022/06/07 02:29:22;;;;;;;0.40;0.40;;;17.00;55.90;;;;;;4973785;28;20201;-58
2022/06/07 02:31:58;;;;;;;0.60;0.52;;;17.00;55.90;;;;;;4972797;28;20202;-58
2022/06/07 02:34:29;;;;;;;0.60;0.50;;;17.00;55.90;;;;;;4973866;28;20261;-58
2022/06/07 02:37:03;;;;;;;0.80;0.45;;;17.00;56.00;;;;;;4973188;28;20590;-58
2022/06/07 02:39:37;;;;;;;0.60;0.60;;;17.00;56.00;;;;;;4973782;28;20209;-58
2022/06/07 02:42:09;;;;;;;0.57;0.57;;;17.00;56.00;;;;;;4973433;28;20276;-58
2022/06/07 02:44:40;;;;;;;0.77;0.60;;;17.00;56.00;;;;;;4973271;28;20230;-58
2022/06/07 02:47:11;;;;;;;0.52;0.52;;;17.10;56.10;;;;;;4972685;28;20222;-58
2022/06/07 02:49:42;;;;;;;0.73;0.60;;;17.10;56.10;;;;;;4972750;28;20198;-58
2022/06/07 02:52:12;;;;;;;0.40;0.40;;;17.10;56.20;;;;;;4982255;28;20198;-58
2022/06/07 02:54:45;;;;;;;0.50;0.50;;;17.10;56.80;;;;;;4973410;28;20205;-58
2022/06/07 02:57:16;;;;;;;0.60;0.60;;;17.10;56.30;;;;;;4973020;28;20218;-58
2022/06/07 02:59:47;;;;;;;0.60;0.60;;;17.20;56.40;;;;;;4986658;28;20228;-58
2022/06/07 03:02:17;;;;;;;0.75;0.50;;;17.20;56.30;;;;;;4992687;28;20205;-58
2022/06/07 03:04:48;;;;;;;0.55;0.50;;;17.20;56.40;;;;;;4992394;28;20229;-58
2022/06/07 03:07:19;;;;;;;0.68;0.60;;;17.20;56.40;;;;;;4992232;28;20276;-58
2022/06/07 03:09:51;;;;;;;0.50;0.50;;;17.20;56.40;;;;;;4992501;28;20194;-58
2022/06/07 03:12:26;;;;;;;0.40;0.40;;;17.30;56.50;;;;;;4992493;28;20200;-62
2022/06/07 03:14:57;;;;;;;0.50;0.50;;;17.30;56.50;;;;;;4987737;28;20197;-58
2022/06/07 03:17:28;;;;;;;0.50;0.50;;;17.30;56.50;;;;;;4991818;28;20229;-58
2022/06/07 03:19:58;;;;;;;0.50;0.50;;;17.30;56.60;;;;;;4986344;28;20201;-59
2022/06/07 03:22:29;;;;;;;0.80;0.50;;;17.30;56.60;;;;;;4992209;28;20676;-58
2022/06/07 03:25:05;;;;;;;0.45;0.45;;;17.30;56.60;;;;;;4991878;28;20225;-61
2022/06/07 03:27:37;;;;;;;0.60;0.50;;;17.40;56.60;;;;;;4992011;28;20316;-58
2022/06/07 03:30:09;;;;;;;0.43;0.43;;;17.40;56.60;;;;;;4992181;28;20201;-58
2022/06/07 03:32:42;;;;;;;0.60;0.60;;;17.40;56.60;;;;;;4991865;28;20213;-58
2022/06/07 03:35:13;;;;;;;0.40;0.40;;;17.40;56.70;;;;;;4991911;28;20193;-59
2022/06/07 03:37:45;;;;;;;0.50;0.50;;;17.40;56.70;;;;;;4988371;28;20217;-59
2022/06/07 03:40:42;;;;;;;0.80;0.70;;;17.40;56.70;;;;;;4992778;28;20284;-58
2022/06/07 03:43:10;;;;;;;0.68;0.60;;;17.40;56.70;;;;;;4991983;28;20225;-59
2022/06/07 03:45:41;;;;;;;0.50;0.50;;;17.40;56.70;;;;;;4991264;28;20266;-57
2022/06/07 03:48:12;;;;;;;0.50;0.50;;;17.50;56.80;;;;;;4991433;28;20222;-57
2022/06/07 03:50:42;;;;;;;0.50;0.50;;;17.50;56.80;;;;;;4989404;28;20666;-57
2022/06/07 03:53:13;;;;;;;0.65;0.63;;;17.50;56.80;;;;;;4971784;28;20202;-58
2022/06/07 03:55:47;;;;;;;0.57;0.57;;;17.50;56.70;;;;;;4972333;28;20241;-57
2022/06/07 03:58:18;;;;;;;0.43;0.43;;;17.50;56.80;;;;;;4971403;28;20799;-57
2022/06/07 04:00:49;;;;;;;0.40;0.40;;;17.50;56.80;;;;;;4989597;28;20204;-57
2022/06/07 04:03:20;;;;;;;0.43;0.43;;;17.60;57.40;;;;;;4990664;28;20197;-59
2022/06/07 04:05:50;;;;;;;0.40;0.40;;;17.60;56.80;;;;;;4990896;28;20256;-57
2022/06/07 04:08:22;;;;;;;0.68;0.50;;;17.60;56.70;;;;;;4990483;28;20225;-56
2022/06/07 04:10:56;;;;;;;0.50;0.50;;;17.60;56.70;;;;;;4972180;28;20194;-57
2022/06/07 04:13:28;;;;;;;1.05;0.70;;;17.60;56.70;;;;;;4972127;28;20209;-57
2022/06/07 04:15:59;;;;;;;0.57;0.52;;;17.60;56.70;;;;;;4971186;28;20217;-56
2022/06/07 04:18:29;;;;;;;3.03;0.50;;;17.70;56.80;;;;;;4986921;28;20233;-59
2022/06/07 04:21:03;;;;;;;0.43;0.40;;;17.70;56.80;;;;;;4991404;28;20208;-61
2022/06/07 04:23:34;;;;;;;1.08;0.60;;;17.70;56.80;;;;;;4990543;28;20308;-57
2022/06/07 04:26:12;;;;;;;0.45;0.45;;;17.70;56.80;;;;;;4990757;28;20225;-57
2022/06/07 04:28:43;;;;;;;0.82;0.47;;;17.70;56.80;;;;;;4988785;28;20213;-56
2022/06/07 04:31:14;;;;;;;1.83;0.63;;;17.70;56.80;;;;;;4991504;28;20205;-57
2022/06/07 04:33:46;;;;;;;1.75;0.47;;;17.70;56.80;;;;;;4991060;28;20229;-58
2022/06/07 04:36:19;;;;;;;0.73;0.57;;;17.70;56.80;;;;;;4994350;28;20279;-54
2022/06/07 04:38:51;;;;;;;0.75;0.60;;;17.70;56.80;;;;;;4995354;28;20198;-54
2022/06/07 04:41:24;;;;;;;0.73;0.45;;;17.70;56.80;;;;;;4995882;28;20201;-55
2022/06/07 04:43:56;;;;;;;1.05;0.80;;;17.80;56.90;;;;;;4995113;28;20197;-54
2022/06/07 04:46:28;;;;;;;0.40;0.40;;;17.80;56.90;;;;;;4983885;28;20662;-54
2022/06/07 04:48:59;;;;;;;1.67;0.47;;;17.80;56.90;;;;;;4974696;28;20231;-57
2022/06/07 04:51:31;;;;;;;0.55;0.47;;;17.80;56.90;;;;;;4975108;28;20201;-55
2022/06/07 04:54:03;;;;;;;0.60;0.60;;;17.80;56.90;;;;;;4974580;28;20818;-56
2022/06/07 04:56:37;;;;;;;1.35;0.50;;;17.80;56.90;;;;;;4974744;28;20233;-56
2022/06/07 04:59:10;;;;;;;0.75;0.60;;;17.80;56.90;;;;;;4992009;28;20200;-57
2022/06/07 05:01:42;;;;;;;0.50;0.50;;;17.80;56.90;;;;;;4994112;28;20712;-58
2022/06/07 05:04:13;;;;;;;0.50;0.40;;;17.80;56.90;;;;;;4993894;28;20201;-54
2022/06/07 05:06:46;;;;;;;0.85;0.65;;;17.80;56.90;;;;;;4994296;28;20711;-54
2022/06/07 05:09:20;;;;;;;0.68;0.50;;;17.80;56.90;;;;;;4975276;28;20206;-52
2022/06/07 05:11:54;;;;;;;0.45;0.45;;;17.80;56.90;;;;;;4975205;28;20201;-55
2022/06/07 05:14:25;;;;;;;0.65;0.60;;;17.80;56.90;;;;;;4975645;28;20209;-56
2022/06/07 05:16:57;;;;;;;0.60;0.60;;;17.80;56.90;;;;;;4978319;28;20276;-58
2022/06/07 05:19:29;;;;;;;0.47;0.47;;;17.80;56.90;;;;;;4994835;28;20287;-55
2022/06/07 05:21:59;;;;;;;0.73;0.47;;;17.80;56.90;;;;;;4991750;28;20603;-55
2022/06/07 05:24:30;;;;;;;1.25;0.70;;;17.80;56.90;;;;;;4991811;28;20257;-54
2022/06/07 05:27:05;;;;;;;0.60;0.52;;;17.80;56.90;;;;;;4994647;28;20229;-55
2022/06/07 05:29:41;;;;;;;1.20;0.60;;;17.80;56.90;;;;;;4994799;28;20208;-54
2022/06/07 05:32:12;;;;;;;1.08;0.63;;;17.90;56.90;;;;;;4994435;28;20657;-59
2022/06/07 05:34:43;;;;;;;1.23;0.60;;;17.90;56.90;;;;;;4994528;28;20209;-54
2022/06/07 05:37:17;;;;;;;0.70;0.60;;;17.90;56.90;;;;;;4994463;28;20229;-55
2022/06/07 05:39:49;;;;;;;0.50;0.50;;;17.90;57.00;;;;;;4994620;28;20681;-54
2022/06/07 05:42:21;;;;;;;0.60;0.60;;;17.90;57.00;;;;;;4993655;28;20198;-56
2022/06/07 05:44:52;;;;;;;0.63;0.57;;;17.90;57.00;;;;;;4992474;28;20222;-56
2022/06/07 05:47:23;;;;;;;1.33;0.50;;;17.90;57.00;;;;;;4993699;28;20375;-59
2022/06/07 05:49:53;;;;;;;1.55;0.65;;;17.80;56.90;;;;;;4994247;28;20206;-54
2022/06/07 05:52:24;;;;;;;0.60;0.60;;;17.90;57.00;;;;;;4994545;28;20201;-57
2022/06/07 05:54:57;;;;;;;2.08;0.70;;;17.80;56.90;;;;;;4994017;28;20206;-55
2022/06/07 05:57:29;;;;;;;0.88;0.65;;;17.90;57.00;;;;;;4994180;28;20224;-54
2022/06/07 06:00:00;;;;;;;0.65;0.65;;;17.80;56.90;;;;;;4993866;28;20216;-58
2022/06/07 06:02:31;;;;;;;0.57;0.57;;;17.80;56.90;;;;;;4993617;28;20205;-58
2022/06/07 06:05:01;;;;;;;0.50;0.50;;;17.90;57.00;;;;;;4993809;28;20232;-57
2022/06/07 06:07:32;;;;;;;1.17;0.60;;;17.80;56.90;;;;;;4993680;28;20708;-57
2022/06/07 06:12:51;;;;;;;1.45;0.60;;;17.80;56.90;;;;;;4989658;28;20325;-58
2022/06/07 06:15:22;;;;;;;1.13;0.73;;;17.80;56.80;;;;;;4992993;28;20568;-58
2022/06/07 06:17:53;;;;;;;1.70;0.70;;;17.80;56.80;;;;;;4993024;28;20230;-58
2022/06/07 06:20:23;;;;;;;1.63;0.68;;;17.80;56.80;;;;;;4993877;28;20209;-57
2022/06/07 06:22:54;;;;;;;0.90;0.60;;;17.80;56.80;;;;;;4993178;28;20197;-58
2022/06/07 06:25:25;;;;;;;0.75;0.70;;;17.80;56.80;;;;;;4992838;28;20232;-58
2022/06/07 06:27:57;;;;;;;0.55;0.52;;;17.80;56.80;;;;;;4992708;28;20217;-58
2022/06/07 06:30:28;;;;;;;1.65;0.60;;;17.80;56.80;;;;;;4993308;28;20201;-58
2022/06/07 06:33:00;;;;;;;1.88;0.60;;;17.80;56.80;;;;;;4993010;28;20204;-59
2022/06/07 06:35:30;;;;;;;1.42;0.60;;;17.80;56.80;;;;;;4992935;28;20201;-56
2022/06/07 06:38:01;;;;;;;1.25;0.85;;;17.80;56.80;;;;;;4992500;28;20232;-60
2022/06/07 06:40:32;;;;;;;1.10;0.70;;;17.80;56.80;;;;;;4993060;28;20205;-61
2022/06/07 06:43:05;;;;;;;1.70;0.68;;;17.80;56.80;;;;;;4992336;28;20194;-60
2022/06/07 06:45:35;;;;;;;1.75;0.70;;;17.80;56.80;;;;;;4992471;28;20729;-61
2022/06/07 06:48:06;;;;;;;1.67;0.80;;;17.80;56.80;;;;;;4992617;28;20221;-58
2022/06/07 06:50:38;;;;;;;1.20;1.00;;;17.80;57.00;;;;;;4988783;28;20543;-61
2022/06/07 06:53:09;;;;;;;3.03;1.02;;;17.80;57.40;;;;;;4992407;28;20200;-58
2022/06/07 06:55:43;;;;;;;1.65;1.20;;;17.80;57.60;;;;;;4992284;28;20220;-58
2022/06/07 06:58:16;;;;;;;0.98;0.90;;;17.80;57.50;;;;;;4991611;28;20217;-59
2022/06/07 07:00:47;;;;;;;2.15;1.30;;;17.80;57.50;;;;;;4992268;28;20200;-58
2022/06/07 07:03:17;;;;;;;1.92;1.23;;;17.80;57.40;;;;;;4990947;28;20781;-59
2022/06/07 07:05:55;;;;;;;1.23;1.08;;;17.80;57.40;;;;;;4991990;28;20236;-60
2022/06/07 07:08:27;;;;;;;1.15;1.00;;;17.80;57.40;;;;;;4992281;28;20217;-58
2022/06/07 07:11:10;;;;;;;1.30;1.17;;;17.80;57.30;;;;;;4992395;28;20201;-58
2022/06/07 07:13:43;;;;;;;2.33;1.58;;;17.80;57.30;;;;;;4992101;28;20196;-58
2022/06/07 07:16:16;;;;;;;1.20;1.10;;;17.80;57.20;;;;;;4991108;28;20197;-58
2022/06/07 07:18:47;;;;;;;1.58;1.27;;;17.80;57.20;;;;;;4992316;28;20209;-58
2022/06/07 07:21:20;;;;;;;1.63;1.40;;;17.80;57.20;;;;;;4991601;28;20650;-59
2022/06/07 07:23:50;;;;;;;2.35;1.25;;;17.80;57.20;;;;;;4992604;28;20198;-59
2022/06/07 07:26:24;;;;;;;2.40;1.40;;;17.80;57.20;;;;;;4991952;28;20221;-58
2022/06/07 07:28:57;;;;;;;1.52;1.40;;;17.80;57.20;;;;;;4991467;28;20213;-60
2022/06/07 07:31:31;;;;;;;1.40;1.20;;;17.80;57.20;;;;;;4991710;28;20654;-59
2022/06/07 07:34:02;;;;;;;1.35;1.25;;;17.80;57.20;;;;;;4990750;28;20654;-58
2022/06/07 07:36:33;;;;;;;1.45;1.23;;;17.80;57.20;;;;;;4992153;28;20284;-58
2022/06/07 07:39:04;;;;;;;2.28;1.50;;;17.80;57.20;;;;;;4987692;28;20190;-60
2022/06/07 07:41:36;;;;;;;1.30;1.20;;;17.70;57.10;;;;;;4992337;28;20197;-60
2022/06/07 07:44:11;;;;;;;1.38;1.15;;;17.70;57.10;;;;;;4989659;28;20193;-57
2022/06/07 07:46:43;;;;;;;1.90;1.13;;;17.70;57.10;;;;;;4972096;28;20261;-58
2022/06/07 07:49:15;;;;;;;1.55;1.20;;;17.70;57.10;;;;;;4971716;28;20206;-59
2022/06/07 07:51:51;;;;;;;1.30;1.20;;;17.70;57.10;;;;;;4971510;28;20221;-60
2022/06/07 07:54:24;;;;;;;1.77;1.50;;;17.70;57.10;;;;;;4972345;28;20230;-59
2022/06/07 07:56:55;;;;;;;2.17;1.00;;;17.70;57.10;;;;;;4972466;28;20221;-60
2022/06/07 07:59:28;;;;;;;1.48;1.30;;;17.70;57.10;;;;;;4972448;28;20198;-59
2022/06/07 08:01:59;;;;;;;1.23;1.13;;;17.70;57.10;;;;;;4972857;28;20201;-60
2022/06/07 08:04:30;;;;;;;2.00;1.40;;;17.70;57.10;;;;;;4972551;28;20209;-59
2022/06/07 08:07:01;;;;;;;1.25;1.10;;;17.70;57.10;;;;;;4972599;28;20241;-59
2022/06/07 08:09:32;;;;;;;2.08;1.38;;;17.70;57.10;;;;;;4994539;28;20208;-60
2022/06/07 08:12:05;;;;;;;1.50;1.25;;;17.70;57.10;;;;;;4998283;28;20197;-58
2022/06/07 08:14:39;;;;;;;1.98;1.20;;;17.70;57.10;;;;;;4997457;28;20232;-59
2022/06/07 08:17:09;;;;;;;1.85;1.13;;;17.70;57.10;;;;;;4997789;28;20224;-58
2022/06/07 08:19:40;;;;;;;1.40;1.27;;;17.60;57.00;;;;;;4997358;28;20193;-58
2022/06/07 08:22:11;;;;;;;1.30;1.20;;;17.60;57.00;;;;;;4997048;28;20205;-58
2022/06/07 08:24:42;;;;;;;2.05;1.27;;;17.60;57.00;;;;;;4978460;28;20201;-58
2022/06/07 08:27:13;;;;;;;1.30;1.20;;;17.60;57.00;;;;;;4996797;28;20685;-58
2022/06/07 08:29:46;;;;;;;2.78;1.40;;;17.60;57.00;;;;;;4997512;28;20214;-60
2022/06/07 08:32:16;;;;;;;1.60;1.20;;;17.60;57.00;;;;;;4998332;28;20193;-58
2022/06/07 08:37:37;;;;;;;1.75;1.20;;;17.60;57.00;;;;;;4997425;28;20211;-58
2022/06/07 08:40:12;;;;;;;1.40;1.30;;;17.60;57.00;;;;;;4998243;28;20645;-60
2022/06/07 08:42:51;;;;;;;1.33;1.23;;;17.60;57.00;;;;;;4998194;28;20197;-58
2022/06/07 08:45:26;;;;;;;1.85;1.02;;;17.60;57.00;;;;;;4998017;28;20224;-59
2022/06/07 08:47:59;;;;;;;1.58;1.10;;;17.50;56.90;;;;;;4997929;28;20228;-58
2022/06/07 08:50:32;;;;;;;1.40;1.10;;;17.60;57.00;;;;;;4997877;28;20571;-59
2022/06/07 08:53:13;;;;;;;2.42;1.45;;;17.50;56.90;;;;;;4996800;28;20208;-57
2022/06/07 08:55:52;;;;;;;1.20;0.90;;;17.50;56.90;;;;;;4998038;28;20672;-60
2022/06/07 08:58:26;;;;;;;1.10;1.00;;;17.60;56.90;;;;;;4997441;28;20300;-58
2022/06/07 09:01:03;;;;;;;1.70;1.20;;;17.50;56.80;;;;;;4997566;28;20208;-58
2022/06/07 09:03:41;;;;;;;1.25;1.10;;;17.50;56.80;;;;;;4997409;28;20200;-60
2022/06/07 09:06:23;;;;;;;1.50;0.90;;;17.50;56.80;;;;;;4997374;28;20312;-49
2022/06/07 09:08:56;;;;;;;1.30;0.65;;;17.50;54.70;;;;;;4997405;28;20197;-53
2022/06/07 09:14:22;;;;;;;0.70;0.60;;;17.50;52.50;;;;;;4978655;28;20201;-54
2022/06/07 09:16:58;;;;;;;1.42;0.70;;;17.50;52.60;;;;;;4977734;28;20222;-55
2022/06/07 09:19:29;;;;;;;0.90;0.65;;;17.50;52.60;;;;;;4978085;28;20193;-53
2022/06/07 09:22:03;;;;;;;1.42;0.90;;;17.50;52.70;;;;;;4978003;28;20194;-51
2022/06/07 09:24:37;;;;;;;0.60;0.60;;;17.50;52.70;;;;;;4994185;28;20201;-53
2022/06/07 09:27:13;;;;;;;0.57;0.52;;;17.50;52.70;;;;;;4994323;28;20799;-52
2022/06/07 09:29:44;;;;;;;1.02;0.60;;;17.50;52.70;;;;;;4994186;28;20632;-50
2022/06/07 09:32:22;;;;;;;1.00;0.70;;;17.50;52.80;;;;;;4979699;28;20194;-53
2022/06/07 09:35:00;;;;;;;1.00;0.68;;;17.50;52.90;;;;;;4974933;28;20201;-52
2022/06/07 09:37:48;;;;;;;1.80;0.88;;;17.50;53.00;;;;;;4977356;28;20213;-54
2022/06/07 09:40:29;;;;;;;1.23;0.70;;;17.50;53.10;;;;;;4986909;28;20264;-54
2022/06/07 09:43:11;;;;;;;1.05;0.70;;;17.50;53.20;;;;;;4991090;28;20193;-54
2022/06/07 09:45:54;;;;;;;0.75;0.68;;;17.50;53.40;;;;;;4972760;28;20226;-57
2022/06/07 09:48:32;;;;;;;0.85;0.68;;;17.50;53.60;;;;;;4974265;28;20218;-56
2022/06/07 09:51:10;;;;;;;0.90;0.60;;;17.50;53.70;;;;;;4974462;28;20202;-56
2022/06/07 09:53:44;;;;;;;1.27;0.80;;;17.40;53.70;;;;;;4973048;28;20193;-56
2022/06/07 09:56:26;;;;;;;0.63;0.60;;;17.50;53.90;;;;;;4984453;28;20204;-52
2022/06/07 09:59:29;;;;;;;2.20;0.70;;;17.40;53.90;;;;;;4992977;28;20590;-57
2022/06/07 10:02:12;;;;;;;0.85;0.70;;;17.40;54.10;;;;;;4992942;28;20201;-52
2022/06/07 10:04:51;;;;;;;1.60;0.77;;;17.50;54.20;;;;;;4993283;28;20574;-52
2022/06/07 10:07:27;;;;;;;0.90;0.75;;;17.40;54.20;;;;;;4992917;28;20264;-54
2022/06/07 10:10:08;;;;;;;1.92;0.68;;;17.40;54.20;;;;;;4993622;28;20208;-53
2022/06/07 10:12:47;;;;;;;1.35;0.80;;;17.40;54.30;;;;;;4992686;28;20220;-53
2022/06/07 10:15:30;;;;;;;0.85;0.70;;;17.40;54.40;;;;;;4993656;28;20193;-55
2022/06/07 10:18:17;;;;;;;0.93;0.60;;;17.40;54.90;;;;;;4992116;28;20229;-52
2022/06/07 10:21:18;;;;;;;1.13;0.68;;;17.40;54.30;;;;;;4992821;28;20197;-51
2022/06/07 10:24:06;;;;;;;0.70;0.70;;;17.40;54.40;;;;;;4975350;28;20197;-51
2022/06/07 10:26:51;;;;;;;0.82;0.75;;;17.40;55.00;;;;;;4972864;28;20230;-54
2022/06/07 10:29:40;;;;;;;0.75;0.60;;;17.40;54.40;;;;;;4973302;28;20758;-54
2022/06/07 10:32:20;;;;;;;0.85;0.68;;;17.40;54.40;;;;;;4979021;28;20193;-53
2022/06/07 10:34:58;;;;;;;0.90;0.70;;;17.40;54.50;;;;;;4991811;28;20208;-51
2022/06/07 10:37:38;;;;;;;1.70;0.88;;;17.40;54.50;;;;;;4992361;28;20221;-50
2022/06/07 10:40:17;;;;;;;1.00;0.80;;;17.40;54.50;;;;;;4993407;28;20208;-53
2022/06/07 10:42:51;;;;;;;1.13;0.73;;;17.40;54.60;;;;;;4991788;28;20201;-53
2022/06/07 10:45:25;;;;;;;1.17;0.60;;;17.40;54.60;;;;;;4993058;28;20200;-54
2022/06/07 10:48:03;;;;;;;0.60;0.60;;;17.40;54.60;;;;;;4991027;28;20240;-52
2022/06/07 10:50:40;;;;;;;1.00;0.70;;;17.40;54.60;;;;;;4992441;28;20681;-51
2022/06/07 10:53:18;;;;;;;0.65;0.65;;;17.40;54.70;;;;;;4991607;28;20204;-51
2022/06/07 10:55:54;;;;;;;1.02;0.60;;;17.40;54.70;;;;;;4991699;28;20202;-50
2022/06/07 10:58:35;;;;;;;0.60;0.60;;;17.40;54.70;;;;;;4992785;28;20899;-55
2022/06/07 11:01:16;;;;;;;0.95;0.70;;;17.40;54.80;;;;;;4992814;28;20248;-51
2022/06/07 11:03:58;;;;;;;1.35;0.60;;;17.40;54.80;;;;;;4989785;28;20186;-50
2022/06/07 11:09:33;;;;;;;1.15;0.80;;;17.40;54.80;;;;;;4991820;28;20669;-52
2022/06/07 11:12:08;;;;;;;1.58;0.60;;;17.40;54.80;;;;;;4972294;28;20198;-52
2022/06/07 11:15:04;;;;;;;1.08;0.77;;;17.40;54.80;;;;;;4971846;28;20575;-50
2022/06/07 11:17:40;;;;;;;0.73;0.70;;;17.40;54.80;;;;;;4972440;28;20222;-50
2022/06/07 11:20:18;;;;;;;0.50;0.50;;;17.40;54.90;;;;;;4971789;28;20197;-51
2022/06/07 11:23:03;;;;;;;0.95;0.73;;;17.40;54.90;;;;;;4972353;28;20191;-52
2022/06/07 11:25:39;;;;;;;1.08;0.70;;;17.30;54.90;;;;;;4974551;28;20248;-50
2022/06/07 11:28:15;;;;;;;0.65;0.55;;;17.30;54.90;;;;;;4972442;28;20592;-54
2022/06/07 11:30:53;;;;;;;0.70;0.60;;;17.30;54.90;;;;;;4971845;28;20232;-53
2022/06/07 11:33:42;;;;;;;0.93;0.70;;;17.30;54.90;;;;;;4987285;28;20204;-51
2022/06/07 11:36:35;;;;;;;0.73;0.60;;;17.30;55.00;;;;;;4991255;28;20205;-51
2022/06/07 11:39:28;;;;;;;1.10;0.70;;;17.30;55.00;;;;;;4991627;28;20662;-53
2022/06/07 11:42:22;;;;;;;1.52;0.85;;;17.30;55.00;;;;;;4985115;28;20198;-50
2022/06/07 11:45:23;;;;;;;0.68;0.60;;;17.30;55.00;;;;;;4991479;28;20668;-51
2022/06/07 11:48:16;;;;;;;1.38;0.65;;;17.30;55.00;;;;;;4990459;28;20231;-51
2022/06/07 11:50:56;;;;;;;0.80;0.65;;;17.20;55.00;;;;;;4990769;28;20205;-51
2022/06/07 11:53:33;;;;;;;0.60;0.60;;;17.20;55.10;;;;;;4991358;28;20194;-52
2022/06/07 11:56:27;;;;;;;0.82;0.70;;;17.20;55.10;;;;;;4991322;28;20220;-54
2022/06/07 11:59:03;;;;;;;1.20;0.80;;;17.20;55.10;;;;;;4990832;28;20264;-52
2022/06/07 12:01:48;;;;;;;2.78;0.90;;;17.20;55.20;;;;;;4991976;28;20289;-51
2022/06/07 12:04:38;;;;;;;0.70;0.70;;;17.20;55.20;;;;;;4991551;28;20193;-52
2022/06/07 12:07:24;;;;;;;0.90;0.80;;;17.20;55.20;;;;;;4990684;28;20233;-52
2022/06/07 12:09:56;;;;;;;1.65;0.77;;;17.20;55.20;;;;;;4990825;28;20205;-53
2022/06/07 12:12:31;;;;;;;1.10;0.70;;;17.20;55.30;;;;;;4991521;28;20206;-51
2022/06/07 12:15:16;;;;;;;1.17;0.80;;;17.10;55.20;;;;;;4991648;28;20200;-53
2022/06/07 12:17:56;;;;;;;0.95;0.60;;;17.10;55.30;;;;;;4990892;28;20225;-53
2022/06/07 12:20:31;;;;;;;1.45;0.80;;;17.10;55.30;;;;;;4991427;28;20201;-55
2022/06/07 12:23:06;;;;;;;0.82;0.60;;;17.10;55.30;;;;;;4991620;28;20193;-54
2022/06/07 12:25:37;;;;;;;1.52;0.90;;;17.10;55.30;;;;;;4990396;28;20201;-53
2022/06/07 12:28:08;;;;;;;0.98;0.75;;;17.10;55.30;;;;;;4990082;28;20233;-51
2022/06/07 12:30:43;;;;;;;1.60;0.75;;;17.10;55.30;;;;;;4990306;28;20201;-51
2022/06/07 12:33:24;;;;;;;0.63;0.63;;;17.00;55.30;;;;;;4990342;28;20200;-55
2022/06/07 12:35:59;;;;;;;1.10;0.60;;;17.00;55.30;;;;;;4989849;28;20225;-54
2022/06/07 12:38:30;;;;;;;0.95;0.60;;;17.00;55.30;;;;;;4990029;28;20267;-56
2022/06/07 12:43:54;;;;;;;1.02;0.73;;;17.00;55.30;;;;;;4990016;28;20256;-53
2022/06/07 12:46:29;;;;;;;1.20;1.00;;;17.00;55.40;;;;;;4989895;28;20264;-54
2022/06/07 12:49:01;;;;;;;1.08;0.75;;;16.90;55.40;;;;;;4987740;28;20209;-55
2022/06/07 12:51:35;;;;;;;0.60;0.60;;;16.90;56.00;;;;;;4988144;28;20268;-55
2022/06/07 12:54:09;;;;;;;0.60;0.60;;;16.90;55.40;;;;;;4989081;28;20198;-55
2022/06/07 12:56:44;;;;;;;1.58;0.63;;;16.90;55.40;;;;;;4991205;28;20264;-55
2022/06/07 12:59:22;;;;;;;0.70;0.60;;;16.90;55.50;;;;;;4993308;28;20201;-55
2022/06/07 13:01:55;;;;;;;0.90;0.80;;;16.90;55.50;;;;;;4992433;28;20193;-54
2022/06/07 13:04:32;;;;;;;0.68;0.68;;;16.90;55.50;;;;;;4991914;28;20201;-55
2022/06/07 13:07:20;;;;;;;1.00;0.80;;;16.90;55.50;;;;;;4993147;28;20231;-55
2022/06/07 13:09:53;;;;;;;0.88;0.80;;;16.90;55.50;;;;;;4992746;28;20665;-56
2022/06/07 13:12:28;;;;;;;0.80;0.73;;;16.80;55.50;;;;;;4992367;28;20713;-56
2022/06/07 13:14:59;;;;;;;0.60;0.57;;;16.80;55.50;;;;;;4992884;28;20208;-55
2022/06/07 13:17:36;;;;;;;0.70;0.70;;;16.80;55.50;;;;;;4993131;28;20225;-56
2022/06/07 13:20:11;;;;;;;1.10;0.70;;;16.80;55.50;;;;;;4992742;28;20574;-56
2022/06/07 13:22:45;;;;;;;0.95;0.73;;;16.80;55.50;;;;;;4991387;28;20268;-56
2022/06/07 13:25:22;;;;;;;1.02;0.73;;;16.80;55.60;;;;;;4992219;28;20260;-55
2022/06/07 13:28:01;;;;;;;1.38;0.70;;;16.80;55.60;;;;;;4992884;28;20233;-54
2022/06/07 13:30:40;;;;;;;1.25;0.90;;;16.80;55.60;;;;;;4993076;28;20193;-56
2022/06/07 13:33:30;;;;;;;1.00;0.68;;;16.70;56.20;;;;;;4992922;28;20240;-54
2022/06/07 13:36:03;;;;;;;1.10;0.73;;;16.70;55.60;;;;;;4992360;28;20205;-55
2022/06/07 13:38:39;;;;;;;1.10;0.80;;;16.70;55.60;;;;;;4992851;28;20581;-54
2022/06/07 13:41:20;;;;;;;0.93;0.60;;;16.70;55.60;;;;;;4992835;28;20204;-57
2022/06/07 13:44:03;;;;;;;0.95;0.70;;;16.70;55.60;;;;;;4993833;28;20201;-55
2022/06/07 13:46:39;;;;;;;0.93;0.68;;;16.70;55.60;;;;;;4992827;28;20205;-56
2022/06/07 13:55:15;;;;;;;0.93;0.63;;;16.70;55.70;;;;;;4992183;28;20216;-56